Terminal Aerodrome Forecast
Issued by NWS

Home | Current Version | Previous Version | Graphics & Text | Print | Product List | Glossary On
Versions: 1 2 3 4 5 6 7 8 9 10 11 12 13 14 15 16
167
FTUS42 KMHX 171408 AAA
TAFISO
TAF AMD
KISO 171408Z 1714/1812 17006KT 5SM -SHRA SCT004 OVC020
      TEMPO 1714/1715 BKN008
     FM171500 18007KT 5SM -SHRA OVC035
     FM171800 17011G18KT 6SM -SHRA VCTS OVC050CB
     FM180000 17009KT P6SM BKN040
      AMD LTD TO CLD VIS AND WIND=

USA.gov is the U.S. government's official web portal to all federal, state and local government web resources and services.